Airfield :
LOGIN :

Register | Disclaimer

   EN    FR    IT 

 










Legend :    VFR   Marginal VFR   IFR   Intensive IFR   Very Intensive IFR
Visi :
Ceiling :
>= 8 km
>= 3000ft
5 to 8 km
1000 to 3000 ft
1500m to 5 km
500 to 1000 ft
800 to 1500m
200 to 500 ft
< 800m
< 200 ft
Symbols :   Thunderstorms  Fog  Heavy snow  Heavy precipitations  Wind > 20 kt
SIGMETs :     Misc.  Thunderstorms  Icing  Turbulence  Mountain Waves  Volcanic Ashes







- Airport Elevation : 184 ft
- IATA code : BRU


EBBR - Bruxelles

CURRENT METAR :
  • 200920Z 19008KT 7000 -RA BKN022 BKN025 05/03 Q1019 NOSIG

EXPIRED METARs :
  • 200850Z 20006KT 9999 -RA SCT021 BKN024 04/03 Q1019 NOSIG
  • 200820Z 19009KT 9999 -RA BKN029 04/02 Q1019 NOSIG
  • 200750Z 19007KT 9999 -RA SCT033 BKN036 04/02 Q1020 NOSIG
  • 200720Z 20006KT 9999 -RA SCT038 04/01 Q1020 NOSIG
  • 200650Z 21007KT CAVOK 04/01 Q1021 NOSIG

TAF TAF EBBR
Valid from the 20 at 06:00 until the 21 at 12:00 UTC


200500Z 2006/2112 22008KT 9999 FEW030
BECMG 2009/2011 SCT005 BKN011
TEMPO 2011/2112 3000 DZRA SCT004 BKN007
TEMPO 2014/2019 23015G27KT
PROB30
TEMPO 2020/2112 2000 DZ OVC004
No reported NOTAMs for that airfield.



MET'MAP, your aeronautical weather chart ! - Copyright ORBIFLY December 2007 - Disclaimer

ORBIFLY MET'MAP TEAM :

Programming & Development : Alexandra Zaïnal
Concept & Development : Baudouin d'Aumeries
Co-Development & Prog : Marc-Olivier Méhu
Technical & hardware support : Manuel Goepfert

Contact : metmap@orbifly.com




SOURCES & CREDITS :

   NOAA